Kimberly Turecamo — WDC6838 — position and weather

sailwx.info

Track history (hours):
 
Tides and Currents Weather Stations Pressure Air Temp Water Temp Dewpoint Dewpoint Depression Visibility Wind Speed Wind Dir Waves Ship Positions

Kimberly Turecamo

Owner: Moran Towing Corporation, New Canaan, CT. More information available from US FCC via Universal Licensing System and Coast Guard Vessel Documentation Center.

Last reported at 2017-Jul-28 07:48 UTC. Time now 2017-Jul-28 08:41 UTC.
Position N 39°02' W 074°37'.

Length 31 m; draft 5 m.

Type: Tow > 200 m length. MMSI: 367061980.

Date/timePositionNaut miles runAvg speedWind from/ knotsBaromVisibWave heightAir tempDewpointWater temp
2017-Jul-28 07:48N 39°02' W 074°37'4 9.0
2017-Jul-28 07:23N 39°05' W 074°34'5 9.1
2017-Jul-28 06:52N 39°08' W 074°30'4 9.2
2017-Jul-28 06:26N 39°12' W 074°27'22 8.9
2017-Jul-28 03:56N 39°29' W 074°09'4 8.9
2017-Jul-28 03:30N 39°33' W 074°08'5 9.0
2017-Jul-28 03:00N 39°37' W 074°05'5 9.0
2017-Jul-28 02:29N 39°41' W 074°02'4 9.2
2017-Jul-28 02:00N 39°45' W 073°59'44 8.9
2017-Jul-27 21:00N 40°29' W 073°54'611.2
2017-Jul-27 20:30N 40°31' W 074°00'5 9.5
2017-Jul-27 20:00N 40°36' W 074°03'3 6.5
2017-Jul-27 19:29N 40°39' W 074°03'0 0.7
2017-Jul-27 19:00N 40°39' W 074°03'2 3.7
2017-Jul-27 18:30N 40°39' W 074°05'2 4.6
2017-Jul-27 18:00N 40°38' W 074°08'0 0.0
2017-Jul-27 17:27N 40°38' W 074°08'0 0.1
2017-Jul-27 16:57N 40°38' W 074°08'0 0.0
2017-Jul-27 16:27N 40°38' W 074°08'0 0.0
2017-Jul-27 15:51N 40°38' W 074°08'0 0.0
2017-Jul-27 15:30N 40°38' W 074°08'0 0.0
2017-Jul-27 14:57N 40°38' W 074°08'0 0.0
2017-Jul-27 14:00N 40°38' W 074°08'3 6.7
2017-Jul-27 13:30N 40°38' W 074°12'0 0.2
2017-Jul-27 13:00N 40°38' W 074°12'2 3.4
2017-Jul-27 12:29N 40°39' W 074°10'2 4.1
2017-Jul-27 12:00N 40°38' W 074°08'0 0.0
2017-Jul-27 11:18N 40°38' W 074°08'0 0.0
2017-Jul-27 11:00N 40°38' W 074°08'0 0.0
2017-Jul-27 10:30N 40°38' W 074°08'3 5.0
2017-Jul-27 09:59N 40°41' W 074°09'1 1.2
2017-Jul-27 09:30N 40°41' W 074°08'2 3.8
2017-Jul-27 08:59N 40°39' W 074°08'0 0.3
2017-Jul-27 08:28N 40°38' W 074°08'0 0.0
2017-Jul-27 07:58N 40°38' W 074°08'0 0.0
2017-Jul-27 07:28N 40°38' W 074°08'0 0.0
2017-Jul-27 06:58N 40°38' W 074°08'0 0.0
2017-Jul-27 06:28N 40°38' W 074°08'0 0.0
2017-Jul-27 05:58N 40°38' W 074°08'0 0.0
2017-Jul-27 05:28N 40°38' W 074°08'0 0.0
2017-Jul-27 04:55N 40°38' W 074°08'0 0.0
2017-Jul-27 04:28N 40°38' W 074°08'0 0.0
2017-Jul-27 03:55N 40°38' W 074°08'0 0.0
2017-Jul-27 03:28N 40°38' W 074°08'0 0.0
2017-Jul-27 02:58N 40°38' W 074°08'0 0.0
2017-Jul-27 02:28N 40°38' W 074°08'0 0.0
2017-Jul-27 01:58N 40°38' W 074°08'0 0.0
2017-Jul-27 01:25N 40°38' W 074°08'0 0.0
2017-Jul-27 00:58N 40°38' W 074°08'4 8.2
2017-Jul-27 00:30N 40°40' W 074°03'4 8.9
2017-Jul-27 00:00N 40°43' W 073°59'3 5.4
2017-Jul-26 23:25N 40°46' W 073°57'0 0.0
2017-Jul-26 22:43N 40°46' W 073°57'0 0.0
2017-Jul-26 22:25N 40°46' W 073°57'0 0.0
2017-Jul-26 21:56N 40°46' W 073°57'3 7.5
2017-Jul-26 21:30N 40°43' W 073°59'4 8.3
2017-Jul-26 21:00N 40°39' W 074°02'4 7.5
2017-Jul-26 20:28N 40°39' W 074°08'0 0.4
2017-Jul-26 20:01N 40°38' W 074°08'0 0.0
2017-Jul-26 19:31N 40°38' W 074°08'0 0.0
2017-Jul-26 19:00N 40°38' W 074°08'1 1.2
2017-Jul-26 18:29N 40°39' W 074°07'4 6.8
2017-Jul-26 17:58N 40°39' W 074°02'4 8.5
2017-Jul-26 17:30N 40°39' W 074°08'2 4.9
2017-Jul-26 17:01N 40°39' W 074°04'2 3.0
2017-Jul-26 16:29N 40°39' W 074°02'1 2.8
2017-Jul-26 16:00N 40°41' W 074°02'4 7.2
2017-Jul-26 15:30N 40°44' W 074°01'3 5.6
2017-Jul-26 14:53N 40°48' W 073°59'0 0.1
2017-Jul-26 13:56N 40°47' W 073°60'0 0.2
2017-Jul-26 13:29N 40°47' W 073°60'0 0.0
2017-Jul-26 12:56N 40°47' W 073°60'0 0.0
2017-Jul-26 12:29N 40°47' W 073°60'0 0.0
2017-Jul-26 11:59N 40°47' W 073°60'0 0.0
2017-Jul-26 11:26N 40°47' W 073°60'0 0.0
2017-Jul-26 10:59N 40°47' W 073°60'0 0.0
2017-Jul-26 10:23N 40°47' W 073°60'0 0.0
2017-Jul-26 09:59N 40°47' W 073°60'0 0.0
2017-Jul-26 09:17N 40°47' W 073°60'0 0.0
2017-Jul-26 08:59N 40°47' W 073°60'0 0.0
2017-Jul-26 08:29N 40°47' W 073°60'0 0.0
2017-Jul-26 07:56N 40°47' W 073°60'0 0.0
2017-Jul-26 07:29N 40°47' W 073°60'0 0.1
2017-Jul-26 06:59N 40°47' W 073°59'0 0.0
2017-Jul-26 06:26N 40°47' W 073°59'0 0.2
2017-Jul-26 05:59N 40°48' W 073°60'0 0.2
2017-Jul-26 05:29N 40°48' W 073°59'0 0.0
2017-Jul-26 04:59N 40°48' W 073°59'0 0.0
2017-Jul-26 04:29N 40°48' W 073°59'0 0.0
2017-Jul-26 03:59N 40°48' W 073°59'0 0.0
2017-Jul-26 03:29N 40°48' W 073°59'0 0.0
2017-Jul-26 02:59N 40°48' W 073°59'0 0.0
2017-Jul-26 02:29N 40°48' W 073°59'0 0.1
2017-Jul-26 01:58N 40°48' W 073°59'0 0.0
2017-Jul-26 01:28N 40°48' W 073°59'0 0.1
2017-Jul-26 00:58N 40°48' W 073°59'0 0.2
2017-Jul-26 00:28N 40°47' W 073°59'0 0.1
2017-Jul-25 23:49N 40°47' W 073°60'0 0.1
2017-Jul-25 23:28N 40°47' W 073°60'0 0.1
2017-Jul-25 22:59N 40°47' W 073°60'0 0.0
2017-Jul-25 22:28N 40°47' W 073°60'0 0.0
2017-Jul-25 21:58N 40°47' W 073°60'0 0.0
2017-Jul-25 21:28N 40°47' W 073°60'0 0.0
2017-Jul-25 20:58N 40°47' W 073°60'0 0.0
2017-Jul-25 20:29N 40°47' W 073°60'0 0.0
2017-Jul-25 19:59N 40°47' W 073°60'0 0.0
2017-Jul-25 19:29N 40°47' W 073°60'0 0.0
2017-Jul-25 18:59N 40°47' W 073°60'0 0.1
2017-Jul-25 18:29N 40°47' W 073°59'0 0.0
2017-Jul-25 17:56N 40°47' W 073°59'0 0.2
2017-Jul-25 17:26N 40°48' W 073°59'0 0.0
2017-Jul-25 16:56N 40°48' W 073°59'0 0.1
2017-Jul-25 16:29N 40°48' W 073°59'0 0.0
2017-Jul-25 15:59N 40°48' W 073°59'0 0.0
2017-Jul-25 15:30N 40°48' W 073°59'3 5.7
2017-Jul-25 15:01N 40°45' W 074°01'5 5.3
2017-Jul-25 14:01N 40°40' W 074°03'0 0.0
2017-Jul-25 13:31N 40°40' W 074°03'0 0.1
2017-Jul-25 13:01N 40°40' W 074°03'0 0.1
2017-Jul-25 12:31N 40°40' W 074°03'0 0.0
2017-Jul-25 12:01N 40°40' W 074°03'0 0.0
2017-Jul-25 11:31N 40°40' W 074°03'0 0.0
2017-Jul-25 11:00N 40°40' W 074°03'0 0.0
2017-Jul-25 10:30N 40°40' W 074°03'0 0.0
2017-Jul-25 10:01N 40°40' W 074°03'0 0.0
2017-Jul-25 09:30N 40°40' W 074°03'0 0.0
2017-Jul-25 09:01N 40°40' W 074°03'0 0.0
2017-Jul-25 08:31N 40°40' W 074°03'0 0.0
2017-Jul-25 08:01N 40°40' W 074°03'0 0.0
2017-Jul-25 07:30N 40°40' W 074°03'0 0.0
2017-Jul-25 07:00N 40°40' W 074°03'0 0.0
2017-Jul-25 06:31N 40°40' W 074°03'0 0.0
2017-Jul-25 06:01N 40°40' W 074°03'0 0.0
2017-Jul-25 05:30N 40°40' W 074°03'0 0.0
2017-Jul-25 05:00N 40°40' W 074°03'0 0.0
2017-Jul-25 04:31N 40°40' W 074°03'0 0.0
2017-Jul-25 04:00N 40°40' W 074°03'0 0.2
2017-Jul-25 03:31N 40°40' W 074°03'0 0.1
2017-Jul-25 03:01N 40°40' W 074°03'0 0.0
2017-Jul-25 02:30N 40°40' W 074°03'0 0.0
2017-Jul-25 02:00N 40°40' W 074°03'0 0.1
2017-Jul-25 01:30N 40°40' W 074°03'0 0.0
2017-Jul-25 01:01N 40°40' W 074°03'0 0.0
2017-Jul-25 00:30N 40°40' W 074°03'0 0.1
2017-Jul-25 00:00N 40°40' W 074°03'0 0.1
2017-Jul-24 23:30N 40°40' W 074°03'0 0.0
2017-Jul-24 23:01N 40°40' W 074°03'0 0.0
2017-Jul-24 22:30N 40°40' W 074°03'0 0.0
2017-Jul-24 22:01N 40°40' W 074°03'0 0.0
2017-Jul-24 21:31N 40°40' W 074°03'0 0.0
2017-Jul-24 21:00N 40°40' W 074°03'0 0.0
2017-Jul-24 20:30N 40°40' W 074°03'0 0.0
2017-Jul-24 20:00N 40°40' W 074°03'0 0.0
2017-Jul-24 19:30N 40°40' W 074°03'0 0.0
2017-Jul-24 19:00N 40°40' W 074°03'0 0.0
2017-Jul-24 18:30N 40°40' W 074°03'0 0.0
2017-Jul-24 18:00N 40°40' W 074°03'0 0.0
2017-Jul-24 17:30N 40°40' W 074°03'0 0.0
2017-Jul-24 17:00N 40°40' W 074°03'0 0.0
2017-Jul-24 16:30N 40°40' W 074°03'0 0.0
2017-Jul-24 16:00N 40°40' W 074°03'4 1.3
2017-Jul-24 12:51N 40°38' W 074°08'0 0.0
2017-Jul-24 12:30N 40°38' W 074°08'0 0.1
2017-Jul-24 12:00N 40°38' W 074°08'4 8.2
2017-Jul-24 11:31N 40°40' W 074°03'0 0.0
2017-Jul-24 11:00N 40°40' W 074°03'0 0.0
2017-Jul-24 10:30N 40°40' W 074°03'0 0.0
2017-Jul-24 10:00N 40°40' W 074°03'0 0.0
2017-Jul-24 09:30N 40°40' W 074°03'0 0.0
2017-Jul-24 09:00N 40°40' W 074°03'0 0.0
2017-Jul-24 08:30N 40°40' W 074°03'0 0.0
2017-Jul-24 08:00N 40°40' W 074°03'0 0.0
2017-Jul-24 07:30N 40°40' W 074°03'0 0.0
2017-Jul-24 07:00N 40°40' W 074°03'0 0.0
2017-Jul-24 06:30N 40°40' W 074°03'0 0.0
2017-Jul-24 06:00N 40°40' W 074°03'0 0.0
2017-Jul-24 05:30N 40°40' W 074°03'0 0.0
2017-Jul-24 05:00N 40°40' W 074°03'0 0.0
2017-Jul-24 04:30N 40°40' W 074°03'0 0.0
2017-Jul-24 04:00N 40°40' W 074°03'0 0.0
2017-Jul-24 03:30N 40°40' W 074°03'0 0.0
2017-Jul-24 03:00N 40°40' W 074°03'0 0.1
2017-Jul-24 02:30N 40°40' W 074°03'0 0.0
2017-Jul-24 02:00N 40°40' W 074°03'0 0.0
2017-Jul-24 01:30N 40°40' W 074°03'0 0.0
2017-Jul-24 01:00N 40°40' W 074°03'0 0.0
2017-Jul-24 00:30N 40°40' W 074°03'0 0.0
2017-Jul-24 00:00N 40°40' W 074°03'0 0.0
2017-Jul-23 23:30N 40°40' W 074°03'0 0.0
2017-Jul-23 23:00N 40°40' W 074°03'0 0.1
2017-Jul-23 22:30N 40°40' W 074°03'0 0.0
2017-Jul-23 22:00N 40°40' W 074°03'0 0.1
2017-Jul-23 21:30N 40°40' W 074°03'0 0.2
2017-Jul-23 21:00N 40°40' W 074°03'0 0.0
2017-Jul-23 20:30N 40°40' W 074°03'0 0.0
2017-Jul-23 19:57N 40°40' W 074°03'0 0.0
2017-Jul-23 19:30N 40°40' W 074°03'0 0.0
2017-Jul-23 19:00N 40°40' W 074°03'0 0.0
2017-Jul-23 18:30N 40°40' W 074°03'0 0.0
2017-Jul-23 18:00N 40°40' W 074°03'0 0.0
2017-Jul-23 17:30N 40°40' W 074°03'0 0.1
2017-Jul-23 17:00N 40°40' W 074°03'0 0.1
2017-Jul-23 16:30N 40°40' W 074°03'0 0.1
2017-Jul-23 16:00N 40°40' W 074°03'0 0.0
2017-Jul-23 15:30N 40°40' W 074°03'0 0.0
2017-Jul-23 15:00N 40°40' W 074°03'0 0.0
2017-Jul-23 14:30N 40°40' W 074°03'0 0.0
2017-Jul-23 14:00N 40°40' W 074°03'0 0.0
2017-Jul-23 13:30N 40°40' W 074°03'0 0.0
2017-Jul-23 13:00N 40°40' W 074°03'0 0.0
2017-Jul-23 12:30N 40°40' W 074°03'0 0.0
2017-Jul-23 12:00N 40°40' W 074°03'0 0.0
2017-Jul-23 11:30N 40°40' W 074°03'0 0.1
2017-Jul-23 11:00N 40°40' W 074°03'0 0.2
2017-Jul-23 10:30N 40°40' W 074°03'0 0.0
2017-Jul-23 10:00N 40°40' W 074°03'0 0.0
2017-Jul-23 09:30N 40°40' W 074°03'0 0.1
2017-Jul-23 09:00N 40°40' W 074°03'0 0.0
2017-Jul-23 08:30N 40°40' W 074°03'0 0.0
2017-Jul-23 08:00N 40°40' W 074°03'0 0.0
2017-Jul-23 07:30N 40°40' W 074°03'0 0.0
2017-Jul-23 07:00N 40°40' W 074°03'0 0.0
2017-Jul-23 06:29N 40°40' W 074°03'0 0.1
2017-Jul-23 05:59N 40°40' W 074°03'0 0.0
2017-Jul-23 05:29N 40°40' W 074°03'0 0.0
2017-Jul-23 04:59N 40°40' W 074°03'0 0.0
2017-Jul-23 04:29N 40°40' W 074°03'0 0.0
2017-Jul-23 03:59N 40°40' W 074°03'0 0.1
2017-Jul-23 03:29N 40°40' W 074°03'0 0.1
2017-Jul-23 02:59N 40°40' W 074°03'0 0.1
2017-Jul-23 02:29N 40°40' W 074°03'0 0.0
2017-Jul-23 01:59N 40°40' W 074°03'0 0.0
2017-Jul-23 01:29N 40°40' W 074°03'0 0.0
2017-Jul-23 00:59N 40°40' W 074°03'0 0.0
2017-Jul-23 00:29N 40°40' W 074°03'0 0.0
2017-Jul-23 00:00N 40°40' W 074°03'0 0.0
2017-Jul-22 23:30N 40°40' W 074°03'4 8.4
2017-Jul-22 23:00N 40°38' W 074°08'0 0.1
2017-Jul-22 22:30N 40°38' W 074°08'0 0.0
2017-Jul-22 22:00N 40°38' W 074°08'0 0.0
2017-Jul-22 21:30N 40°38' W 074°08'0 0.0
2017-Jul-22 21:00N 40°38' W 074°08'3 5.9
2017-Jul-22 20:30N 40°41' W 074°09'0 0.3
2017-Jul-22 20:00N 40°41' W 074°09'2 4.2
2017-Jul-22 19:29N 40°39' W 074°09'2 5.2
2017-Jul-22 19:00N 40°39' W 074°06'2 3.0
2017-Jul-22 18:30N 40°39' W 074°04'4 7.6
2017-Jul-22 18:00N 40°38' W 074°09'3 5.4
2017-Jul-22 17:30N 40°41' W 074°08'0 0.4
2017-Jul-22 17:00N 40°41' W 074°08'0 0.2
2017-Jul-22 16:30N 40°41' W 074°08'1 1.2
2017-Jul-22 16:00N 40°41' W 074°08'3 5.5
2017-Jul-22 15:30N 40°39' W 074°10'0 0.0
2017-Jul-22 15:00N 40°39' W 074°10'0 0.0
2017-Jul-22 14:00N 40°39' W 074°10'2 3.4
2017-Jul-22 13:30N 40°38' W 074°08'0 0.0
2017-Jul-22 13:00N 40°38' W 074°08'0 0.0
2017-Jul-22 12:29N 40°38' W 074°08'0 0.0
2017-Jul-22 12:00N 40°38' W 074°08'0 0.0
2017-Jul-22 11:26N 40°38' W 074°08'0 0.0
2017-Jul-22 10:58N 40°38' W 074°08'0 0.0
2017-Jul-22 10:30N 40°38' W 074°08'0 0.0
2017-Jul-22 09:59N 40°38' W 074°08'0 0.0
2017-Jul-22 09:29N 40°38' W 074°08'0 0.0
2017-Jul-22 09:00N 40°38' W 074°08'0 0.0
2017-Jul-22 08:30N 40°38' W 074°08'1 1.8
2017-Jul-22 08:00N 40°39' W 074°09'3 5.5
2017-Jul-22 07:29N 40°37' W 074°12'3 5.0
2017-Jul-22 06:56N 40°34' W 074°13'1 0.6
2017-Jul-22 05:16N 40°35' W 074°12'310.3
2017-Jul-22 05:00N 40°38' W 074°12'3 6.2
2017-Jul-22 04:30N 40°38' W 074°08'0 0.0
2017-Jul-22 04:00N 40°38' W 074°08'0 0.0
2017-Jul-22 03:30N 40°38' W 074°08'0 0.0
2017-Jul-22 03:00N 40°38' W 074°08'0 0.0
2017-Jul-22 02:30N 40°38' W 074°08'0 0.0
2017-Jul-22 02:00N 40°38' W 074°08'0 0.0
2017-Jul-22 01:30N 40°38' W 074°08'0 0.0
2017-Jul-22 01:00N 40°38' W 074°08'1 1.6
2017-Jul-22 00:31N 40°39' W 074°09'3 6.5
2017-Jul-22 00:00N 40°42' W 074°09'0 0.2
2017-Jul-21 23:30N 40°42' W 074°09'1 2.8
2017-Jul-21 23:01N 40°41' W 074°08'1 1.2
2017-Jul-21 22:29N 40°41' W 074°08'0 0.6
2017-Jul-21 22:00N 40°42' W 074°08'1 2.7
2017-Jul-21 21:30N 40°40' W 074°08'0 0.9
2017-Jul-21 21:00N 40°40' W 074°08'2 3.2
2017-Jul-21 20:30N 40°39' W 074°07'1 1.5
2017-Jul-21 20:00N 40°39' W 074°06'1 2.6
2017-Jul-21 19:27N 40°38' W 074°08'0 0.0
2017-Jul-21 19:00N 40°38' W 074°08'0 0.0
2017-Jul-21 18:30N 40°38' W 074°08'0 0.0
2017-Jul-21 18:00N 40°38' W 074°08'0 0.0
2017-Jul-21 17:30N 40°38' W 074°08'1 1.8
2017-Jul-21 17:01N 40°39' W 074°07'4 8.0
2017-Jul-21 16:30N 40°36' W 074°02'1 2.6
2017-Jul-21 16:00N 40°35' W 074°01'510.4
2017-Jul-21 15:30N 40°39' W 074°06'1 2.3
2017-Jul-21 15:01N 40°39' W 074°08'3 5.3
2017-Jul-21 14:30N 40°41' W 074°09'0 0.1
2017-Jul-21 14:00N 40°41' W 074°09'1 2.3
2017-Jul-21 13:30N 40°40' W 074°08'2 3.1
2017-Jul-21 12:59N 40°39' W 074°07'3 6.3
2017-Jul-21 12:30N 40°38' W 074°03'3 6.4
2017-Jul-21 11:57N 40°38' W 074°08'0 0.0
2017-Jul-21 11:30N 40°38' W 074°08'1 1.7
2017-Jul-21 11:00N 40°39' W 074°09'3 6.2
2017-Jul-21 10:30N 40°42' W 074°08'0 0.3
2017-Jul-21 10:00N 40°42' W 074°09'1 2.2
2017-Jul-21 09:29N 40°41' W 074°08'2 4.3
2017-Jul-21 09:00N 40°39' W 074°08'3 6.7
2017-Jul-21 08:30N 40°39' W 074°03'3 6.4
2017-Jul-21 08:00N 40°38' W 074°08'0 0.0
2017-Jul-21 07:30N 40°38' W 074°08'0 0.0
2017-Jul-21 07:00N 40°38' W 074°08'0 0.0
2017-Jul-21 06:30N 40°38' W 074°08'0 0.0
2017-Jul-21 06:00N 40°38' W 074°08'0 0.0
2017-Jul-21 05:30N 40°38' W 074°08'0 0.0
2017-Jul-21 05:00N 40°38' W 074°08'0 0.0
2017-Jul-21 04:30N 40°38' W 074°08'0 0.0
2017-Jul-21 04:00N 40°38' W 074°08'0 0.0
2017-Jul-21 03:30N 40°38' W 074°08'0 0.5
2017-Jul-21 03:00N 40°39' W 074°07'1 2.5
2017-Jul-21 02:30N 40°39' W 074°06'0 0.0
2017-Jul-21 02:00N 40°39' W 074°06'1 1.7
2017-Jul-21 01:30N 40°39' W 074°05'2 4.0
2017-Jul-21 01:00N 40°38' W 074°03'2 4.8
2017-Jul-21 00:30N 40°39' W 074°05'5 9.3
2017-Jul-21 00:00N 40°38' W 074°12'6 2.4
2017-Jul-20 21:35N 40°33' W 074°15'2 4.9
2017-Jul-20 21:09N 40°34' W 074°13'1 5.3
2017-Jul-20 20:56N 40°35' W 074°12'2 5.1
2017-Jul-20 20:30N 40°38' W 074°12'2 4.5
2017-Jul-20 20:00N 40°39' W 074°10'3 6.8
2017-Jul-20 19:30N 40°39' W 074°05'2 3.8
2017-Jul-20 18:59N 40°38' W 074°08'0 0.0
2017-Jul-20 18:30N 40°38' W 074°08'0 0.0
2017-Jul-20 18:00N 40°38' W 074°08'0 0.0
2017-Jul-20 17:06N 40°38' W 074°08'0 0.0
2017-Jul-20 16:59N 40°38' W 074°08'0 0.0
2017-Jul-20 16:30N 40°38' W 074°08'0 0.0
2017-Jul-20 16:00N 40°38' W 074°08'0 0.0
2017-Jul-20 15:28N 40°38' W 074°08'0 0.0
2017-Jul-20 15:00N 40°38' W 074°08'0 0.0
2017-Jul-20 14:00N 40°38' W 074°08'0 0.0
2017-Jul-20 13:30N 40°38' W 074°08'0 0.0
2017-Jul-20 13:00N 40°38' W 074°08'0 0.0
2017-Jul-20 12:30N 40°38' W 074°08'0 0.0
2017-Jul-20 12:00N 40°38' W 074°08'0 0.0
2017-Jul-20 11:30N 40°38' W 074°08'0 0.0
2017-Jul-20 11:00N 40°38' W 074°08'0 0.0
2017-Jul-20 10:30N 40°38' W 074°08'0 0.0
2017-Jul-20 10:00N 40°38' W 074°08'0 0.0
2017-Jul-20 09:30N 40°38' W 074°08'0 0.0
2017-Jul-20 07:45N 40°38' W 074°08'0 0.0
2017-Jul-20 07:22N 40°38' W 074°08'0 0.0
2017-Jul-20 06:59N 40°38' W 074°08'0 0.0
2017-Jul-20 06:29N 40°38' W 074°08'0 0.0
2017-Jul-20 06:00N 40°38' W 074°08'0 0.0
2017-Jul-20 05:30N 40°38' W 074°08'0 0.0
2017-Jul-20 05:00N 40°38' W 074°08'0 0.0
2017-Jul-20 04:30N 40°38' W 074°08'0 0.0
2017-Jul-20 04:00N 40°38' W 074°08'0 0.0
2017-Jul-20 03:30N 40°38' W 074°08'0 0.0
2017-Jul-20 03:00N 40°38' W 074°08'0 0.0
2017-Jul-20 02:30N 40°38' W 074°08'1 2.3
2017-Jul-20 02:00N 40°39' W 074°09'2 3.4
2017-Jul-20 01:30N 40°38' W 074°11'2 4.2
2017-Jul-20 01:00N 40°39' W 074°09'1 1.5
2017-Jul-20 00:30N 40°39' W 074°08'1 2.6
2017-Jul-20 00:00N 40°39' W 074°06'2 4.4
2017-Jul-19 23:30N 40°39' W 074°03'0 1.0
2017-Jul-19 23:00N 40°39' W 074°03'0 0.1
2017-Jul-19 22:30N 40°40' W 074°03'0 0.0
2017-Jul-19 22:00N 40°40' W 074°03'0 0.0
2017-Jul-19 21:30N 40°40' W 074°03'0 0.0
2017-Jul-19 21:00N 40°40' W 074°03'0 0.0
2017-Jul-19 20:30N 40°40' W 074°03'0 0.0
2017-Jul-19 20:00N 40°40' W 074°03'0 0.0
2017-Jul-19 19:30N 40°40' W 074°03'0 0.0
2017-Jul-19 19:00N 40°40' W 074°03'0 0.2
2017-Jul-19 18:30N 40°39' W 074°03'0 0.1
2017-Jul-19 18:00N 40°39' W 074°03'0 0.0
2017-Jul-19 17:30N 40°39' W 074°03'0 0.0
2017-Jul-19 17:00N 40°39' W 074°03'0 0.0
2017-Jul-19 16:30N 40°39' W 074°03'2 1.8
2017-Jul-19 15:30N 40°39' W 074°05'2 4.3
2017-Jul-19 15:01N 40°38' W 074°08'0 0.1
2017-Jul-19 14:28N 40°38' W 074°08'0 0.0
2017-Jul-19 14:00N 40°38' W 074°08'0 0.0
2017-Jul-19 13:30N 40°38' W 074°08'0 0.0
2017-Jul-19 13:00N 40°38' W 074°08'0 0.0
2017-Jul-19 12:30N 40°38' W 074°08'0 0.0
2017-Jul-19 12:00N 40°38' W 074°08'2 4.0
2017-Jul-19 11:30N 40°39' W 074°10'1 1.8
2017-Jul-19 11:00N 40°38' W 074°11'2 3.9
2017-Jul-19 10:30N 40°39' W 074°09'4 8.3
2017-Jul-19 10:01N 40°39' W 074°03'3 6.4
2017-Jul-19 09:30N 40°39' W 074°08'0 0.2
2017-Jul-19 09:00N 40°38' W 074°08'0 0.0
2017-Jul-19 08:30N 40°38' W 074°08'0 0.0
2017-Jul-19 08:00N 40°38' W 074°08'0 0.0
2017-Jul-19 07:30N 40°38' W 074°08'0 0.0
2017-Jul-19 07:00N 40°38' W 074°08'0 0.0
2017-Jul-19 06:30N 40°38' W 074°08'0 0.0
2017-Jul-19 06:00N 40°38' W 074°08'0 0.0
2017-Jul-19 05:30N 40°38' W 074°08'0 0.1
2017-Jul-19 05:00N 40°39' W 074°08'3 6.8
2017-Jul-19 04:30N 40°42' W 074°09'0 0.1
2017-Jul-19 04:00N 40°42' W 074°09'3 5.1
2017-Jul-19 03:30N 40°39' W 074°09'3 5.1
2017-Jul-19 03:00N 40°39' W 074°05'4 7.4
2017-Jul-19 02:30N 40°41' W 074°01'1 1.5
2017-Jul-19 02:00N 40°41' W 074°00'2 4.9
2017-Jul-19 01:30N 40°40' W 074°03'4 8.0
2017-Jul-19 01:00N 40°39' W 074°08'0 0.2
2017-Jul-19 00:28N 40°38' W 074°08'0 0.0
2017-Jul-18 23:58N 40°38' W 074°08'0 0.0
2017-Jul-18 23:28N 40°38' W 074°08'0 0.0
2017-Jul-18 22:55N 40°38' W 074°08'0 0.0
2017-Jul-18 22:25N 40°38' W 074°08'0 0.0
2017-Jul-18 21:55N 40°38' W 074°08'1 2.5
2017-Jul-18 21:30N 40°39' W 074°09'3 5.3
2017-Jul-18 21:00N 40°41' W 074°08'0 1.0
2017-Jul-18 20:30N 40°42' W 074°09'0 0.0
2017-Jul-18 19:59N 40°42' W 074°09'0 0.0
2017-Jul-18 19:29N 40°42' W 074°09'2 4.2
2017-Jul-18 19:00N 40°40' W 074°08'1 2.9
2017-Jul-18 18:30N 40°41' W 074°08'0 0.3
2017-Jul-18 18:00N 40°41' W 074°08'2 4.0
2017-Jul-18 17:30N 40°39' W 074°09'1 2.2
2017-Jul-18 16:59N 40°38' W 074°08'0 0.0
2017-Jul-18 16:29N 40°38' W 074°08'0 0.0
2017-Jul-18 15:59N 40°38' W 074°08'0 0.0
2017-Jul-18 15:29N 40°38' W 074°08'0 0.0
2017-Jul-18 14:59N 40°38' W 074°08'2 2.2
2017-Jul-18 14:00N 40°39' W 074°05'2 3.9
2017-Jul-18 13:30N 40°40' W 074°03'1 1.3
2017-Jul-18 13:00N 40°39' W 074°02'2 4.2
2017-Jul-18 12:30N 40°39' W 074°05'2 3.8
2017-Jul-18 11:58N 40°38' W 074°08'0 0.0
2017-Jul-18 11:25N 40°38' W 074°08'0 0.0
2017-Jul-18 10:58N 40°38' W 074°08'1 2.4
2017-Jul-18 10:30N 40°39' W 074°09'1 1.4
2017-Jul-18 10:00N 40°40' W 074°09'1 2.7
2017-Jul-18 09:31N 40°39' W 074°08'  
Track history (hours):
 
Tides and Currents Weather Stations Pressure Air Temp Water Temp Dewpoint Dewpoint Depression Visibility Wind Speed Wind Dir Waves Ship Positions

Kimberly Turecamo

Owner: Moran Towing Corporation, New Canaan, CT. More information available from US FCC via Universal Licensing System and Coast Guard Vessel Documentation Center.

Last reported at 2017-Jul-28 07:48 UTC. Time now 2017-Jul-28 08:41 UTC.
Position N 39°02' W 074°37'.

Length 31 m; draft 5 m.

Type: Tow > 200 m length. MMSI: 367061980.

Date/timePositionNaut miles runAvg speedWind from/ knotsBaromVisibWave heightAir tempDewpointWater temp
2017-Jul-28 07:48N 39°02' W 074°37'4 9.0
2017-Jul-28 07:23N 39°05' W 074°34'5 9.1
2017-Jul-28 06:52N 39°08' W 074°30'4 9.2
2017-Jul-28 06:26N 39°12' W 074°27'22 8.9
2017-Jul-28 03:56N 39°29' W 074°09'4 8.9
2017-Jul-28 03:30N 39°33' W 074°08'5 9.0
2017-Jul-28 03:00N 39°37' W 074°05'5 9.0
2017-Jul-28 02:29N 39°41' W 074°02'4 9.2
2017-Jul-28 02:00N 39°45' W 073°59'44 8.9
2017-Jul-27 21:00N 40°29' W 073°54'611.2
2017-Jul-27 20:30N 40°31' W 074°00'5 9.5
2017-Jul-27 20:00N 40°36' W 074°03'3 6.5
2017-Jul-27 19:29N 40°39' W 074°03'0 0.7
2017-Jul-27 19:00N 40°39' W 074°03'2 3.7
2017-Jul-27 18:30N 40°39' W 074°05'2 4.6
2017-Jul-27 18:00N 40°38' W 074°08'0 0.0
2017-Jul-27 17:27N 40°38' W 074°08'0 0.1
2017-Jul-27 16:57N 40°38' W 074°08'0 0.0
2017-Jul-27 16:27N 40°38' W 074°08'0 0.0
2017-Jul-27 15:51N 40°38' W 074°08'0 0.0
2017-Jul-27 15:30N 40°38' W 074°08'0 0.0
2017-Jul-27 14:57N 40°38' W 074°08'0 0.0
2017-Jul-27 14:00N 40°38' W 074°08'3 6.7
2017-Jul-27 13:30N 40°38' W 074°12'0 0.2
2017-Jul-27 13:00N 40°38' W 074°12'2 3.4
2017-Jul-27 12:29N 40°39' W 074°10'2 4.1
2017-Jul-27 12:00N 40°38' W 074°08'0 0.0
2017-Jul-27 11:18N 40°38' W 074°08'0 0.0
2017-Jul-27 11:00N 40°38' W 074°08'0 0.0
2017-Jul-27 10:30N 40°38' W 074°08'3 5.0
2017-Jul-27 09:59N 40°41' W 074°09'1 1.2
2017-Jul-27 09:30N 40°41' W 074°08'2 3.8
2017-Jul-27 08:59N 40°39' W 074°08'0 0.3
2017-Jul-27 08:28N 40°38' W 074°08'0 0.0
2017-Jul-27 07:58N 40°38' W 074°08'0 0.0
2017-Jul-27 07:28N 40°38' W 074°08'0 0.0
2017-Jul-27 06:58N 40°38' W 074°08'0 0.0
2017-Jul-27 06:28N 40°38' W 074°08'0 0.0
2017-Jul-27 05:58N 40°38' W 074°08'0 0.0
2017-Jul-27 05:28N 40°38' W 074°08'0 0.0
2017-Jul-27 04:55N 40°38' W 074°08'0 0.0
2017-Jul-27 04:28N 40°38' W 074°08'0 0.0
2017-Jul-27 03:55N 40°38' W 074°08'0 0.0
2017-Jul-27 03:28N 40°38' W 074°08'0 0.0
2017-Jul-27 02:58N 40°38' W 074°08'0 0.0
2017-Jul-27 02:28N 40°38' W 074°08'0 0.0
2017-Jul-27 01:58N 40°38' W 074°08'0 0.0
2017-Jul-27 01:25N 40°38' W 074°08'0 0.0
2017-Jul-27 00:58N 40°38' W 074°08'4 8.2
2017-Jul-27 00:30N 40°40' W 074°03'4 8.9
2017-Jul-27 00:00N 40°43' W 073°59'3 5.4
2017-Jul-26 23:25N 40°46' W 073°57'0 0.0
2017-Jul-26 22:43N 40°46' W 073°57'0 0.0
2017-Jul-26 22:25N 40°46' W 073°57'0 0.0
2017-Jul-26 21:56N 40°46' W 073°57'3 7.5
2017-Jul-26 21:30N 40°43' W 073°59'4 8.3
2017-Jul-26 21:00N 40°39' W 074°02'4 7.5
2017-Jul-26 20:28N 40°39' W 074°08'0 0.4
2017-Jul-26 20:01N 40°38' W 074°08'0 0.0
2017-Jul-26 19:31N 40°38' W 074°08'0 0.0
2017-Jul-26 19:00N 40°38' W 074°08'1 1.2
2017-Jul-26 18:29N 40°39' W 074°07'4 6.8
2017-Jul-26 17:58N 40°39' W 074°02'4 8.5
2017-Jul-26 17:30N 40°39' W 074°08'2 4.9
2017-Jul-26 17:01N 40°39' W 074°04'2 3.0
2017-Jul-26 16:29N 40°39' W 074°02'1 2.8
2017-Jul-26 16:00N 40°41' W 074°02'4 7.2
2017-Jul-26 15:30N 40°44' W 074°01'3 5.6
2017-Jul-26 14:53N 40°48' W 073°59'0 0.1
2017-Jul-26 13:56N 40°47' W 073°60'0 0.2
2017-Jul-26 13:29N 40°47' W 073°60'0 0.0
2017-Jul-26 12:56N 40°47' W 073°60'0 0.0
2017-Jul-26 12:29N 40°47' W 073°60'0 0.0
2017-Jul-26 11:59N 40°47' W 073°60'0 0.0
2017-Jul-26 11:26N 40°47' W 073°60'0 0.0
2017-Jul-26 10:59N 40°47' W 073°60'0 0.0
2017-Jul-26 10:23N 40°47' W 073°60'0 0.0
2017-Jul-26 09:59N 40°47' W 073°60'0 0.0
2017-Jul-26 09:17N 40°47' W 073°60'0 0.0
2017-Jul-26 08:59N 40°47' W 073°60'0 0.0
2017-Jul-26 08:29N 40°47' W 073°60'0 0.0
2017-Jul-26 07:56N 40°47' W 073°60'0 0.0
2017-Jul-26 07:29N 40°47' W 073°60'0 0.1
2017-Jul-26 06:59N 40°47' W 073°59'0 0.0
2017-Jul-26 06:26N 40°47' W 073°59'0 0.2
2017-Jul-26 05:59N 40°48' W 073°60'0 0.2
2017-Jul-26 05:29N 40°48' W 073°59'0 0.0
2017-Jul-26 04:59N 40°48' W 073°59'0 0.0
2017-Jul-26 04:29N 40°48' W 073°59'0 0.0
2017-Jul-26 03:59N 40°48' W 073°59'0 0.0
2017-Jul-26 03:29N 40°48' W 073°59'0 0.0
2017-Jul-26 02:59N 40°48' W 073°59'0 0.0
2017-Jul-26 02:29N 40°48' W 073°59'0 0.1
2017-Jul-26 01:58N 40°48' W 073°59'0 0.0
2017-Jul-26 01:28N 40°48' W 073°59'0 0.1
2017-Jul-26 00:58N 40°48' W 073°59'0 0.2
2017-Jul-26 00:28N 40°47' W 073°59'0 0.1
2017-Jul-25 23:49N 40°47' W 073°60'0 0.1
2017-Jul-25 23:28N 40°47' W 073°60'0 0.1
2017-Jul-25 22:59N 40°47' W 073°60'0 0.0
2017-Jul-25 22:28N 40°47' W 073°60'0 0.0
2017-Jul-25 21:58N 40°47' W 073°60'0 0.0
2017-Jul-25 21:28N 40°47' W 073°60'0 0.0
2017-Jul-25 20:58N 40°47' W 073°60'0 0.0
2017-Jul-25 20:29N 40°47' W 073°60'0 0.0
2017-Jul-25 19:59N 40°47' W 073°60'0 0.0
2017-Jul-25 19:29N 40°47' W 073°60'0 0.0
2017-Jul-25 18:59N 40°47' W 073°60'0 0.1
2017-Jul-25 18:29N 40°47' W 073°59'0 0.0
2017-Jul-25 17:56N 40°47' W 073°59'0 0.2
2017-Jul-25 17:26N 40°48' W 073°59'0 0.0
2017-Jul-25 16:56N 40°48' W 073°59'0 0.1
2017-Jul-25 16:29N 40°48' W 073°59'0 0.0
2017-Jul-25 15:59N 40°48' W 073°59'0 0.0
2017-Jul-25 15:30N 40°48' W 073°59'3 5.7
2017-Jul-25 15:01N 40°45' W 074°01'5 5.3
2017-Jul-25 14:01N 40°40' W 074°03'0 0.0
2017-Jul-25 13:31N 40°40' W 074°03'0 0.1
2017-Jul-25 13:01N 40°40' W 074°03'0 0.1
2017-Jul-25 12:31N 40°40' W 074°03'0 0.0
2017-Jul-25 12:01N 40°40' W 074°03'0 0.0
2017-Jul-25 11:31N 40°40' W 074°03'0 0.0
2017-Jul-25 11:00N 40°40' W 074°03'0 0.0
2017-Jul-25 10:30N 40°40' W 074°03'0 0.0
2017-Jul-25 10:01N 40°40' W 074°03'0 0.0
2017-Jul-25 09:30N 40°40' W 074°03'0 0.0
2017-Jul-25 09:01N 40°40' W 074°03'0 0.0
2017-Jul-25 08:31N 40°40' W 074°03'0 0.0
2017-Jul-25 08:01N 40°40' W 074°03'0 0.0
2017-Jul-25 07:30N 40°40' W 074°03'0 0.0
2017-Jul-25 07:00N 40°40' W 074°03'0 0.0
2017-Jul-25 06:31N 40°40' W 074°03'0 0.0
2017-Jul-25 06:01N 40°40' W 074°03'0 0.0
2017-Jul-25 05:30N 40°40' W 074°03'0 0.0
2017-Jul-25 05:00N 40°40' W 074°03'0 0.0
2017-Jul-25 04:31N 40°40' W 074°03'0 0.0
2017-Jul-25 04:00N 40°40' W 074°03'0 0.2
2017-Jul-25 03:31N 40°40' W 074°03'0 0.1
2017-Jul-25 03:01N 40°40' W 074°03'0 0.0
2017-Jul-25 02:30N 40°40' W 074°03'0 0.0
2017-Jul-25 02:00N 40°40' W 074°03'0 0.1
2017-Jul-25 01:30N 40°40' W 074°03'0 0.0
2017-Jul-25 01:01N 40°40' W 074°03'0 0.0
2017-Jul-25 00:30N 40°40' W 074°03'0 0.1
2017-Jul-25 00:00N 40°40' W 074°03'0 0.1
2017-Jul-24 23:30N 40°40' W 074°03'0 0.0
2017-Jul-24 23:01N 40°40' W 074°03'0 0.0
2017-Jul-24 22:30N 40°40' W 074°03'0 0.0
2017-Jul-24 22:01N 40°40' W 074°03'0 0.0
2017-Jul-24 21:31N 40°40' W 074°03'0 0.0
2017-Jul-24 21:00N 40°40' W 074°03'0 0.0
2017-Jul-24 20:30N 40°40' W 074°03'0 0.0
2017-Jul-24 20:00N 40°40' W 074°03'0 0.0
2017-Jul-24 19:30N 40°40' W 074°03'0 0.0
2017-Jul-24 19:00N 40°40' W 074°03'0 0.0
2017-Jul-24 18:30N 40°40' W 074°03'0 0.0
2017-Jul-24 18:00N 40°40' W 074°03'0 0.0
2017-Jul-24 17:30N 40°40' W 074°03'0 0.0
2017-Jul-24 17:00N 40°40' W 074°03'0 0.0
2017-Jul-24 16:30N 40°40' W 074°03'0 0.0
2017-Jul-24 16:00N 40°40' W 074°03'4 1.3
2017-Jul-24 12:51N 40°38' W 074°08'0 0.0
2017-Jul-24 12:30N 40°38' W 074°08'0 0.1
2017-Jul-24 12:00N 40°38' W 074°08'4 8.2
2017-Jul-24 11:31N 40°40' W 074°03'0 0.0
2017-Jul-24 11:00N 40°40' W 074°03'0 0.0
2017-Jul-24 10:30N 40°40' W 074°03'0 0.0
2017-Jul-24 10:00N 40°40' W 074°03'0 0.0
2017-Jul-24 09:30N 40°40' W 074°03'0 0.0
2017-Jul-24 09:00N 40°40' W 074°03'0 0.0
2017-Jul-24 08:30N 40°40' W 074°03'0 0.0
2017-Jul-24 08:00N 40°40' W 074°03'0 0.0
2017-Jul-24 07:30N 40°40' W 074°03'0 0.0
2017-Jul-24 07:00N 40°40' W 074°03'0 0.0
2017-Jul-24 06:30N 40°40' W 074°03'0 0.0
2017-Jul-24 06:00N 40°40' W 074°03'0 0.0
2017-Jul-24 05:30N 40°40' W 074°03'0 0.0
2017-Jul-24 05:00N 40°40' W 074°03'0 0.0
2017-Jul-24 04:30N 40°40' W 074°03'0 0.0
2017-Jul-24 04:00N 40°40' W 074°03'0 0.0
2017-Jul-24 03:30N 40°40' W 074°03'0 0.0
2017-Jul-24 03:00N 40°40' W 074°03'0 0.1
2017-Jul-24 02:30N 40°40' W 074°03'0 0.0
2017-Jul-24 02:00N 40°40' W 074°03'0 0.0
2017-Jul-24 01:30N 40°40' W 074°03'0 0.0
2017-Jul-24 01:00N 40°40' W 074°03'0 0.0
2017-Jul-24 00:30N 40°40' W 074°03'0 0.0
2017-Jul-24 00:00N 40°40' W 074°03'0 0.0
2017-Jul-23 23:30N 40°40' W 074°03'0 0.0
2017-Jul-23 23:00N 40°40' W 074°03'0 0.1
2017-Jul-23 22:30N 40°40' W 074°03'0 0.0
2017-Jul-23 22:00N 40°40' W 074°03'0 0.1
2017-Jul-23 21:30N 40°40' W 074°03'0 0.2
2017-Jul-23 21:00N 40°40' W 074°03'0 0.0
2017-Jul-23 20:30N 40°40' W 074°03'0 0.0
2017-Jul-23 19:57N 40°40' W 074°03'0 0.0
2017-Jul-23 19:30N 40°40' W 074°03'0 0.0
2017-Jul-23 19:00N 40°40' W 074°03'0 0.0
2017-Jul-23 18:30N 40°40' W 074°03'0 0.0
2017-Jul-23 18:00N 40°40' W 074°03'0 0.0
2017-Jul-23 17:30N 40°40' W 074°03'0 0.1
2017-Jul-23 17:00N 40°40' W 074°03'0 0.1
2017-Jul-23 16:30N 40°40' W 074°03'0 0.1
2017-Jul-23 16:00N 40°40' W 074°03'0 0.0
2017-Jul-23 15:30N 40°40' W 074°03'0 0.0
2017-Jul-23 15:00N 40°40' W 074°03'0 0.0
2017-Jul-23 14:30N 40°40' W 074°03'0 0.0
2017-Jul-23 14:00N 40°40' W 074°03'0 0.0
2017-Jul-23 13:30N 40°40' W 074°03'0 0.0
2017-Jul-23 13:00N 40°40' W 074°03'0 0.0
2017-Jul-23 12:30N 40°40' W 074°03'0 0.0
2017-Jul-23 12:00N 40°40' W 074°03'0 0.0
2017-Jul-23 11:30N 40°40' W 074°03'0 0.1
2017-Jul-23 11:00N 40°40' W 074°03'0 0.2
2017-Jul-23 10:30N 40°40' W 074°03'0 0.0
2017-Jul-23 10:00N 40°40' W 074°03'0 0.0
2017-Jul-23 09:30N 40°40' W 074°03'0 0.1
2017-Jul-23 09:00N 40°40' W 074°03'0 0.0
2017-Jul-23 08:30N 40°40' W 074°03'0 0.0
2017-Jul-23 08:00N 40°40' W 074°03'0 0.0
2017-Jul-23 07:30N 40°40' W 074°03'0 0.0
2017-Jul-23 07:00N 40°40' W 074°03'0 0.0
2017-Jul-23 06:29N 40°40' W 074°03'0 0.1
2017-Jul-23 05:59N 40°40' W 074°03'0 0.0
2017-Jul-23 05:29N 40°40' W 074°03'0 0.0
2017-Jul-23 04:59N 40°40' W 074°03'0 0.0
2017-Jul-23 04:29N 40°40' W 074°03'0 0.0
2017-Jul-23 03:59N 40°40' W 074°03'0 0.1
2017-Jul-23 03:29N 40°40' W 074°03'0 0.1
2017-Jul-23 02:59N 40°40' W 074°03'0 0.1
2017-Jul-23 02:29N 40°40' W 074°03'0 0.0
2017-Jul-23 01:59N 40°40' W 074°03'0 0.0
2017-Jul-23 01:29N 40°40' W 074°03'0 0.0
2017-Jul-23 00:59N 40°40' W 074°03'0 0.0
2017-Jul-23 00:29N 40°40' W 074°03'0 0.0
2017-Jul-23 00:00N 40°40' W 074°03'0 0.0
2017-Jul-22 23:30N 40°40' W 074°03'4 8.4
2017-Jul-22 23:00N 40°38' W 074°08'0 0.1
2017-Jul-22 22:30N 40°38' W 074°08'0 0.0
2017-Jul-22 22:00N 40°38' W 074°08'0 0.0
2017-Jul-22 21:30N 40°38' W 074°08'0 0.0
2017-Jul-22 21:00N 40°38' W 074°08'3 5.9
2017-Jul-22 20:30N 40°41' W 074°09'0 0.3
2017-Jul-22 20:00N 40°41' W 074°09'2 4.2
2017-Jul-22 19:29N 40°39' W 074°09'2 5.2
2017-Jul-22 19:00N 40°39' W 074°06'2 3.0
2017-Jul-22 18:30N 40°39' W 074°04'4 7.6
2017-Jul-22 18:00N 40°38' W 074°09'3 5.4
2017-Jul-22 17:30N 40°41' W 074°08'0 0.4
2017-Jul-22 17:00N 40°41' W 074°08'0 0.2
2017-Jul-22 16:30N 40°41' W 074°08'1 1.2
2017-Jul-22 16:00N 40°41' W 074°08'3 5.5
2017-Jul-22 15:30N 40°39' W 074°10'0 0.0
2017-Jul-22 15:00N 40°39' W 074°10'0 0.0
2017-Jul-22 14:00N 40°39' W 074°10'2 3.4
2017-Jul-22 13:30N 40°38' W 074°08'0 0.0
2017-Jul-22 13:00N 40°38' W 074°08'0 0.0
2017-Jul-22 12:29N 40°38' W 074°08'0 0.0
2017-Jul-22 12:00N 40°38' W 074°08'0 0.0
2017-Jul-22 11:26N 40°38' W 074°08'0 0.0
2017-Jul-22 10:58N 40°38' W 074°08'0 0.0
2017-Jul-22 10:30N 40°38' W 074°08'0 0.0
2017-Jul-22 09:59N 40°38' W 074°08'0 0.0
2017-Jul-22 09:29N 40°38' W 074°08'0 0.0
2017-Jul-22 09:00N 40°38' W 074°08'0 0.0
2017-Jul-22 08:30N 40°38' W 074°08'1 1.8
2017-Jul-22 08:00N 40°39' W 074°09'3 5.5
2017-Jul-22 07:29N 40°37' W 074°12'3 5.0
2017-Jul-22 06:56N 40°34' W 074°13'1 0.6
2017-Jul-22 05:16N 40°35' W 074°12'310.3
2017-Jul-22 05:00N 40°38' W 074°12'3 6.2
2017-Jul-22 04:30N 40°38' W 074°08'0 0.0
2017-Jul-22 04:00N 40°38' W 074°08'0 0.0
2017-Jul-22 03:30N 40°38' W 074°08'0 0.0
2017-Jul-22 03:00N 40°38' W 074°08'0 0.0
2017-Jul-22 02:30N 40°38' W 074°08'0 0.0
2017-Jul-22 02:00N 40°38' W 074°08'0 0.0
2017-Jul-22 01:30N 40°38' W 074°08'0 0.0
2017-Jul-22 01:00N 40°38' W 074°08'1 1.6
2017-Jul-22 00:31N 40°39' W 074°09'3 6.5
2017-Jul-22 00:00N 40°42' W 074°09'0 0.2
2017-Jul-21 23:30N 40°42' W 074°09'1 2.8
2017-Jul-21 23:01N 40°41' W 074°08'1 1.2
2017-Jul-21 22:29N 40°41' W 074°08'0 0.6
2017-Jul-21 22:00N 40°42' W 074°08'1 2.7
2017-Jul-21 21:30N 40°40' W 074°08'0 0.9
2017-Jul-21 21:00N 40°40' W 074°08'2 3.2
2017-Jul-21 20:30N 40°39' W 074°07'1 1.5
2017-Jul-21 20:00N 40°39' W 074°06'1 2.6
2017-Jul-21 19:27N 40°38' W 074°08'0 0.0
2017-Jul-21 19:00N 40°38' W 074°08'0 0.0
2017-Jul-21 18:30N 40°38' W 074°08'0 0.0
2017-Jul-21 18:00N 40°38' W 074°08'0 0.0
2017-Jul-21 17:30N 40°38' W 074°08'1 1.8
2017-Jul-21 17:01N 40°39' W 074°07'4 8.0
2017-Jul-21 16:30N 40°36' W 074°02'1 2.6
2017-Jul-21 16:00N 40°35' W 074°01'510.4
2017-Jul-21 15:30N 40°39' W 074°06'1 2.3
2017-Jul-21 15:01N 40°39' W 074°08'3 5.3
2017-Jul-21 14:30N 40°41' W 074°09'0 0.1
2017-Jul-21 14:00N 40°41' W 074°09'1 2.3
2017-Jul-21 13:30N 40°40' W 074°08'2 3.1
2017-Jul-21 12:59N 40°39' W 074°07'3 6.3
2017-Jul-21 12:30N 40°38' W 074°03'3 6.4
2017-Jul-21 11:57N 40°38' W 074°08'0 0.0
2017-Jul-21 11:30N 40°38' W 074°08'1 1.7
2017-Jul-21 11:00N 40°39' W 074°09'3 6.2
2017-Jul-21 10:30N 40°42' W 074°08'0 0.3
2017-Jul-21 10:00N 40°42' W 074°09'1 2.2
2017-Jul-21 09:29N 40°41' W 074°08'2 4.3
2017-Jul-21 09:00N 40°39' W 074°08'3 6.7
2017-Jul-21 08:30N 40°39' W 074°03'3 6.4
2017-Jul-21 08:00N 40°38' W 074°08'0 0.0
2017-Jul-21 07:30N 40°38' W 074°08'0 0.0
2017-Jul-21 07:00N 40°38' W 074°08'0 0.0
2017-Jul-21 06:30N 40°38' W 074°08'0 0.0
2017-Jul-21 06:00N 40°38' W 074°08'0 0.0
2017-Jul-21 05:30N 40°38' W 074°08'0 0.0
2017-Jul-21 05:00N 40°38' W 074°08'0 0.0
2017-Jul-21 04:30N 40°38' W 074°08'0 0.0
2017-Jul-21 04:00N 40°38' W 074°08'0 0.0
2017-Jul-21 03:30N 40°38' W 074°08'0 0.5
2017-Jul-21 03:00N 40°39' W 074°07'1 2.5
2017-Jul-21 02:30N 40°39' W 074°06'0 0.0
2017-Jul-21 02:00N 40°39' W 074°06'1 1.7
2017-Jul-21 01:30N 40°39' W 074°05'2 4.0
2017-Jul-21 01:00N 40°38' W 074°03'2 4.8
2017-Jul-21 00:30N 40°39' W 074°05'5 9.3
2017-Jul-21 00:00N 40°38' W 074°12'6 2.4
2017-Jul-20 21:35N 40°33' W 074°15'2 4.9
2017-Jul-20 21:09N 40°34' W 074°13'1 5.3
2017-Jul-20 20:56N 40°35' W 074°12'2 5.1
2017-Jul-20 20:30N 40°38' W 074°12'2 4.5
2017-Jul-20 20:00N 40°39' W 074°10'3 6.8
2017-Jul-20 19:30N 40°39' W 074°05'2 3.8
2017-Jul-20 18:59N 40°38' W 074°08'0 0.0
2017-Jul-20 18:30N 40°38' W 074°08'0 0.0
2017-Jul-20 18:00N 40°38' W 074°08'0 0.0
2017-Jul-20 17:06N 40°38' W 074°08'0 0.0
2017-Jul-20 16:59N 40°38' W 074°08'0 0.0
2017-Jul-20 16:30N 40°38' W 074°08'0 0.0
2017-Jul-20 16:00N 40°38' W 074°08'0 0.0
2017-Jul-20 15:28N 40°38' W 074°08'0 0.0
2017-Jul-20 15:00N 40°38' W 074°08'0 0.0
2017-Jul-20 14:00N 40°38' W 074°08'0 0.0
2017-Jul-20 13:30N 40°38' W 074°08'0 0.0
2017-Jul-20 13:00N 40°38' W 074°08'0 0.0
2017-Jul-20 12:30N 40°38' W 074°08'0 0.0
2017-Jul-20 12:00N 40°38' W 074°08'0 0.0
2017-Jul-20 11:30N 40°38' W 074°08'0 0.0
2017-Jul-20 11:00N 40°38' W 074°08'0 0.0
2017-Jul-20 10:30N 40°38' W 074°08'0 0.0
2017-Jul-20 10:00N 40°38' W 074°08'0 0.0
2017-Jul-20 09:30N 40°38' W 074°08'0 0.0
2017-Jul-20 07:45N 40°38' W 074°08'0 0.0
2017-Jul-20 07:22N 40°38' W 074°08'0 0.0
2017-Jul-20 06:59N 40°38' W 074°08'0 0.0
2017-Jul-20 06:29N 40°38' W 074°08'0 0.0
2017-Jul-20 06:00N 40°38' W 074°08'0 0.0
2017-Jul-20 05:30N 40°38' W 074°08'0 0.0
2017-Jul-20 05:00N 40°38' W 074°08'0 0.0
2017-Jul-20 04:30N 40°38' W 074°08'0 0.0
2017-Jul-20 04:00N 40°38' W 074°08'0 0.0
2017-Jul-20 03:30N 40°38' W 074°08'0 0.0
2017-Jul-20 03:00N 40°38' W 074°08'0 0.0
2017-Jul-20 02:30N 40°38' W 074°08'1 2.3
2017-Jul-20 02:00N 40°39' W 074°09'2 3.4
2017-Jul-20 01:30N 40°38' W 074°11'2 4.2
2017-Jul-20 01:00N 40°39' W 074°09'1 1.5
2017-Jul-20 00:30N 40°39' W 074°08'1 2.6
2017-Jul-20 00:00N 40°39' W 074°06'2 4.4
2017-Jul-19 23:30N 40°39' W 074°03'0 1.0
2017-Jul-19 23:00N 40°39' W 074°03'0 0.1
2017-Jul-19 22:30N 40°40' W 074°03'0 0.0
2017-Jul-19 22:00N 40°40' W 074°03'0 0.0
2017-Jul-19 21:30N 40°40' W 074°03'0 0.0
2017-Jul-19 21:00N 40°40' W 074°03'0 0.0
2017-Jul-19 20:30N 40°40' W 074°03'0 0.0
2017-Jul-19 20:00N 40°40' W 074°03'0 0.0
2017-Jul-19 19:30N 40°40' W 074°03'0 0.0
2017-Jul-19 19:00N 40°40' W 074°03'0 0.2
2017-Jul-19 18:30N 40°39' W 074°03'0 0.1
2017-Jul-19 18:00N 40°39' W 074°03'0 0.0
2017-Jul-19 17:30N 40°39' W 074°03'0 0.0
2017-Jul-19 17:00N 40°39' W 074°03'0 0.0
2017-Jul-19 16:30N 40°39' W 074°03'2 1.8
2017-Jul-19 15:30N 40°39' W 074°05'2 4.3
2017-Jul-19 15:01N 40°38' W 074°08'0 0.1
2017-Jul-19 14:28N 40°38' W 074°08'0 0.0
2017-Jul-19 14:00N 40°38' W 074°08'0 0.0
2017-Jul-19 13:30N 40°38' W 074°08'0 0.0
2017-Jul-19 13:00N 40°38' W 074°08'0 0.0
2017-Jul-19 12:30N 40°38' W 074°08'0 0.0
2017-Jul-19 12:00N 40°38' W 074°08'2 4.0
2017-Jul-19 11:30N 40°39' W 074°10'1 1.8
2017-Jul-19 11:00N 40°38' W 074°11'2 3.9
2017-Jul-19 10:30N 40°39' W 074°09'4 8.3
2017-Jul-19 10:01N 40°39' W 074°03'3 6.4
2017-Jul-19 09:30N 40°39' W 074°08'0 0.2
2017-Jul-19 09:00N 40°38' W 074°08'0 0.0
2017-Jul-19 08:30N 40°38' W 074°08'0 0.0
2017-Jul-19 08:00N 40°38' W 074°08'0 0.0
2017-Jul-19 07:30N 40°38' W 074°08'0 0.0
2017-Jul-19 07:00N 40°38' W 074°08'0 0.0
2017-Jul-19 06:30N 40°38' W 074°08'0 0.0
2017-Jul-19 06:00N 40°38' W 074°08'0 0.0
2017-Jul-19 05:30N 40°38' W 074°08'0 0.1
2017-Jul-19 05:00N 40°39' W 074°08'3 6.8
2017-Jul-19 04:30N 40°42' W 074°09'0 0.1
2017-Jul-19 04:00N 40°42' W 074°09'3 5.1
2017-Jul-19 03:30N 40°39' W 074°09'3 5.1
2017-Jul-19 03:00N 40°39' W 074°05'4 7.4
2017-Jul-19 02:30N 40°41' W 074°01'1 1.5
2017-Jul-19 02:00N 40°41' W 074°00'2 4.9
2017-Jul-19 01:30N 40°40' W 074°03'4 8.0
2017-Jul-19 01:00N 40°39' W 074°08'0 0.2
2017-Jul-19 00:28N 40°38' W 074°08'0 0.0
2017-Jul-18 23:58N 40°38' W 074°08'0 0.0
2017-Jul-18 23:28N 40°38' W 074°08'0 0.0
2017-Jul-18 22:55N 40°38' W 074°08'0 0.0
2017-Jul-18 22:25N 40°38' W 074°08'0 0.0
2017-Jul-18 21:55N 40°38' W 074°08'1 2.5
2017-Jul-18 21:30N 40°39' W 074°09'3 5.3
2017-Jul-18 21:00N 40°41' W 074°08'0 1.0
2017-Jul-18 20:30N 40°42' W 074°09'0 0.0
2017-Jul-18 19:59N 40°42' W 074°09'0 0.0
2017-Jul-18 19:29N 40°42' W 074°09'2 4.2
2017-Jul-18 19:00N 40°40' W 074°08'1 2.9
2017-Jul-18 18:30N 40°41' W 074°08'0 0.3
2017-Jul-18 18:00N 40°41' W 074°08'2 4.0
2017-Jul-18 17:30N 40°39' W 074°09'1 2.2
2017-Jul-18 16:59N 40°38' W 074°08'0 0.0
2017-Jul-18 16:29N 40°38' W 074°08'0 0.0
2017-Jul-18 15:59N 40°38' W 074°08'0 0.0
2017-Jul-18 15:29N 40°38' W 074°08'0 0.0
2017-Jul-18 14:59N 40°38' W 074°08'2 2.2
2017-Jul-18 14:00N 40°39' W 074°05'2 3.9
2017-Jul-18 13:30N 40°40' W 074°03'1 1.3
2017-Jul-18 13:00N 40°39' W 074°02'2 4.2
2017-Jul-18 12:30N 40°39' W 074°05'2 3.8
2017-Jul-18 11:58N 40°38' W 074°08'0 0.0
2017-Jul-18 11:25N 40°38' W 074°08'0 0.0
2017-Jul-18 10:58N 40°38' W 074°08'1 2.4
2017-Jul-18 10:30N 40°39' W 074°09'1 1.4
2017-Jul-18 10:00N 40°40' W 074°09'1 2.7
2017-Jul-18 09:31N 40°39' W 074°08'  

Dump ship's entire track history